Time;durP1;ratioP1;P1;durP2;ratioP2;P2;SDS_P1;SDS_P2;PMS_P1;PMS_P2;Temp;Humidity;BMP_temperature;BMP_pressure;BME280_temperature;BME280_humidity;BME280_pressure;Samples;Min_cycle;Max_cycle;Signal;HPM_P1;HPM_P2
2021/04/05 00:02:14;;;;;;;;;;;3.80;95.60;;;;;;5052304;28;19962;-75
2021/04/05 00:04:39;;;;;;;;;;;3.90;95.60;;;;;;5060511;28;19999;-75
2021/04/05 00:07:05;;;;;;;;;;;3.80;95.50;;;;;;5063797;28;20004;-75
2021/04/05 00:09:30;;;;;;;;;;;3.80;95.50;;;;;;5070373;28;19916;-75
2021/04/05 00:11:56;;;;;;;;;;;3.80;95.50;;;;;;5051925;28;19908;-75
2021/04/05 00:14:22;;;;;;;;;;;3.80;95.90;;;;;;5052997;28;19909;-75
2021/04/05 00:16:47;;;;;;;;;;;3.70;95.60;;;;;;5066639;28;19915;-75
2021/04/05 00:19:13;;;;;;;;;;;3.70;95.80;;;;;;5052388;28;20401;-75
2021/04/05 00:21:38;;;;;;;;;;;3.70;95.70;;;;;;5064855;28;19912;-75
2021/04/05 00:24:04;;;;;;;;;;;3.70;95.70;;;;;;5071427;28;19908;-75
2021/04/05 00:26:29;;;;;;;;;;;3.70;95.80;;;;;;5069882;28;19912;-75
2021/04/05 00:28:55;;;;;;;;;;;3.60;95.80;;;;;;5051818;28;19978;-75
2021/04/05 00:31:20;;;;;;;;;;;3.60;95.90;;;;;;5051720;28;20407;-75
2021/04/05 00:33:46;;;;;;;;;;;3.60;96.00;;;;;;5070792;28;19912;-75
2021/04/05 00:36:11;;;;;;;;;;;3.50;96.10;;;;;;5058105;28;19917;-75
2021/04/05 00:38:37;;;;;;;;;;;3.50;96.20;;;;;;5053074;28;20346;-75
2021/04/05 00:41:07;;;;;;;;;;;3.50;96.30;;;;;;5052309;28;19909;-75
2021/04/05 00:43:37;;;;;;;;;;;3.50;96.30;;;;;;5063420;28;20270;-76
2021/04/05 00:46:03;;;;;;;;;;;3.50;96.50;;;;;;5054929;28;19913;-75
2021/04/05 00:48:28;;;;;;;;;;;3.40;96.60;;;;;;5068142;28;19913;-75
2021/04/05 00:50:55;;;;;;;;;;;3.40;96.80;;;;;;5058375;28;19908;-75
2021/04/05 00:53:41;;;;;;;;;;;3.40;96.80;;;;;;5071250;28;19909;-75
2021/04/05 00:56:07;;;;;;;;;;;3.50;96.90;;;;;;5050330;28;19916;-75
2021/04/05 00:58:33;;;;;;;;;;;3.50;96.80;;;;;;5065537;28;19995;-75
2021/04/05 01:01:01;;;;;;;;;;;3.50;97.00;;;;;;5063698;28;19920;-75
2021/04/05 01:03:27;;;;;;;;;;;3.50;97.20;;;;;;5052433;28;19909;-75
2021/04/05 01:05:54;;;;;;;;;;;3.50;97.30;;;;;;5069788;28;19917;-75
2021/04/05 01:08:19;;;;;;;;;;;3.50;97.50;;;;;;5070632;28;19923;-75
2021/04/05 01:10:46;;;;;;;;;;;3.40;97.60;;;;;;5070542;28;20011;-75
2021/04/05 01:13:11;;;;;;;;;;;3.40;97.70;;;;;;5057520;28;19959;-75
2021/04/05 01:15:37;;;;;;;;;;;3.40;97.90;;;;;;5059817;28;20374;-75
2021/04/05 01:18:04;;;;;;;;;;;3.40;97.90;;;;;;5052293;28;19909;-75
2021/04/05 01:20:29;;;;;;;;;;;3.40;98.10;;;;;;5056928;28;19912;-75
2021/04/05 01:22:55;;;;;;;;;;;3.40;98.10;;;;;;5069026;28;20360;-75
2021/04/05 01:25:21;;;;;;;;;;;3.30;98.10;;;;;;5064690;28;19919;-75
2021/04/05 01:27:47;;;;;;;;;;;3.30;98.20;;;;;;5050075;28;19948;-75
2021/04/05 01:30:27;;;;;;;;;;;3.30;98.30;;;;;;5051267;28;19951;-75
2021/04/05 01:33:19;;;;;;;;;;;3.30;98.50;;;;;;5049898;28;19909;-75
2021/04/05 01:35:50;;;;;;;;;;;3.20;98.60;;;;;;5045376;28;19921;-75
2021/04/05 01:38:18;;;;;;;;;;;3.20;98.70;;;;;;5051239;28;19935;-75
2021/04/05 01:40:49;;;;;;;;;;;3.20;98.80;;;;;;5057768;28;19909;-75
2021/04/05 01:43:15;;;;;;;;;;;3.20;98.80;;;;;;5057939;28;19909;-75
2021/04/05 01:45:41;;;;;;;;;;;3.20;98.90;;;;;;5064523;28;19912;-75
2021/04/05 01:48:07;;;;;;;;;;;3.20;99.00;;;;;;5059849;28;19913;-75
2021/04/05 01:50:32;;;;;;;;;;;3.10;99.00;;;;;;5055031;28;19909;-75
2021/04/05 01:53:02;;;;;;;;;;;3.10;99.10;;;;;;5055043;28;19970;-75
2021/04/05 01:55:28;;;;;;;;;;;3.00;99.20;;;;;;5061320;28;19999;-75
2021/04/05 01:57:54;;;;;;;;;;;2.90;99.30;;;;;;5053605;28;19913;-75
2021/04/05 02:00:22;;;;;;;;;;;2.90;99.50;;;;;;5059729;28;20474;-75
2021/04/05 02:02:47;;;;;;;;;;;2.90;99.60;;;;;;5069584;28;19913;-75
2021/04/05 02:05:13;;;;;;;;;;;2.90;99.70;;;;;;5054858;28;19913;-76
2021/04/05 02:07:39;;;;;;;;;;;2.90;99.70;;;;;;5064254;28;19913;-75
2021/04/05 02:10:06;;;;;;;;;;;2.90;99.70;;;;;;5073893;28;19949;-75
2021/04/05 02:12:32;;;;;;;;;;;2.80;99.60;;;;;;5073629;28;20007;-75
2021/04/05 02:14:57;;;;;;;;;;;2.80;99.60;;;;;;5066827;28;19992;-75
2021/04/05 02:17:23;;;;;;;;;;;2.80;99.70;;;;;;5067348;28;19979;-75
2021/04/05 02:19:48;;;;;;;;;;;2.80;99.70;;;;;;5073790;28;20373;-74
2021/04/05 02:22:14;;;;;;;;;;;2.70;99.80;;;;;;5064320;28;19909;-75
2021/04/05 02:24:40;;;;;;;;;;;2.70;99.90;;;;;;5054402;28;19940;-75
2021/04/05 02:27:06;;;;;;;;;;;2.70;99.90;;;;;;5053281;28;19913;-75
2021/04/05 02:29:32;;;;;;;;;;;2.70;99.90;;;;;;5054626;28;20512;-74
2021/04/05 02:31:57;;;;;;;;;;;2.70;99.90;;;;;;5054335;28;19909;-75
2021/04/05 02:34:23;;;;;;;;;;;2.70;99.90;;;;;;5056273;28;19916;-74
2021/04/05 02:36:49;;;;;;;;;;;2.60;99.90;;;;;;5064033;28;19920;-74
2021/04/05 02:39:14;;;;;;;;;;;2.60;99.90;;;;;;5054104;28;19948;-74
2021/04/05 02:41:41;;;;;;;;;;;2.60;99.90;;;;;;5053897;28;19916;-74
2021/04/05 02:44:06;;;;;;;;;;;2.60;99.90;;;;;;5054878;28;19922;-75
2021/04/05 02:46:37;;;;;;;;;;;2.60;99.90;;;;;;5063316;28;19917;-74
2021/04/05 02:49:13;;;;;;;;;;;2.60;99.90;;;;;;5053565;28;19963;-74
2021/04/05 02:51:43;;;;;;;;;;;2.60;99.90;;;;;;5063355;28;19917;-74
2021/04/05 02:54:08;;;;;;;;;;;2.60;99.90;;;;;;5073060;28;19908;-74
2021/04/05 02:56:35;;;;;;;;;;;2.60;99.90;;;;;;5056003;28;20297;-75
2021/04/05 02:59:01;;;;;;;;;;;2.50;99.90;;;;;;5063029;28;20007;-74
2021/04/05 03:01:27;;;;;;;;;;;2.50;99.90;;;;;;5059763;28;19988;-74
2021/04/05 03:03:56;;;;;;;;;;;2.50;99.90;;;;;;5072746;28;20258;-74
2021/04/05 03:06:22;;;;;;;;;;;2.50;99.90;;;;;;5056174;28;19917;-74
2021/04/05 03:08:48;;;;;;;;;;;2.50;99.90;;;;;;5052059;28;19916;-74
2021/04/05 03:11:14;;;;;;;;;;;2.40;99.90;;;;;;5053120;28;19913;-74
2021/04/05 03:13:40;;;;;;;;;;;2.40;99.90;;;;;;5059903;28;19951;-74
2021/04/05 03:16:07;;;;;;;;;;;2.40;99.90;;;;;;5065538;28;19943;-74
2021/04/05 03:18:33;;;;;;;;;;;2.30;99.90;;;;;;5071349;28;19915;-74
2021/04/05 03:20:58;;;;;;;;;;;2.20;99.90;;;;;;5065216;28;19917;-74
2021/04/05 03:23:24;;;;;;;;;;;2.10;99.90;;;;;;5060349;28;19935;-74
2021/04/05 03:25:49;;;;;;;;;;;2.00;99.90;;;;;;5062161;28;20333;-74
2021/04/05 03:28:16;;;;;;;;;;;1.90;99.90;;;;;;5052974;28;19913;-74
2021/04/05 03:30:53;;;;;;;;;;;1.80;99.90;;;;;;5051808;28;19931;-74
2021/04/05 03:33:37;;;;;;;;;;;1.80;99.90;;;;;;5062023;28;19912;-74
2021/04/05 03:36:05;;;;;;;;;;;1.70;99.90;;;;;;5058146;28;20012;-74
2021/04/05 03:38:33;;;;;;;;;;;1.70;99.90;;;;;;5060884;28;19908;-74
2021/04/05 03:41:01;;;;;;;;;;;1.70;99.90;;;;;;5052888;28;20364;-74
2021/04/05 03:43:31;;;;;;;;;;;1.80;99.90;;;;;;5070419;28;19962;-74
2021/04/05 03:45:58;;;;;;;;;;;1.80;99.90;;;;;;5061752;28;19936;-74
2021/04/05 03:48:25;;;;;;;;;;;1.80;99.90;;;;;;5072103;28;19909;-74
2021/04/05 03:51:08;;;;;;;;;;;1.80;99.90;;;;;;5071622;28;19908;-74
2021/04/05 03:53:34;;;;;;;;;;;1.90;99.90;;;;;;5070675;28;19914;-74
2021/04/05 03:56:02;;;;;;;;;;;2.00;99.90;;;;;;5070456;28;19912;-74
2021/04/05 03:58:29;;;;;;;;;;;2.00;99.90;;;;;;5059434;28;19908;-74
2021/04/05 04:00:56;;;;;;;;;;;2.00;99.90;;;;;;5058116;28;19944;-74
2021/04/05 04:03:32;;;;;;;;;;;2.10;99.90;;;;;;5052309;28;19913;-74
2021/04/05 04:06:01;;;;;;;;;;;2.10;99.90;;;;;;5053033;28;19913;-74
2021/04/05 04:08:32;;;;;;;;;;;2.20;99.90;;;;;;5071599;28;20356;-74
2021/04/05 04:11:00;;;;;;;;;;;2.30;99.90;;;;;;5057891;28;19909;-74
2021/04/05 04:13:27;;;;;;;;;;;2.30;99.90;;;;;;5071201;28;20409;-74
2021/04/05 04:15:53;;;;;;;;;;;2.40;99.90;;;;;;5063288;28;19919;-74
2021/04/05 04:18:19;;;;;;;;;;;2.40;99.90;;;;;;5053527;28;19909;-75
2021/04/05 04:20:45;;;;;;;;;;;2.50;99.90;;;;;;5052317;28;19909;-75
2021/04/05 04:23:12;;;;;;;;;;;2.60;99.90;;;;;;5052069;28;19909;-75
2021/04/05 04:25:38;;;;;;;;;;;2.60;99.90;;;;;;5053393;28;19913;-75
2021/04/05 04:28:04;;;;;;;;;;;2.60;99.90;;;;;;5062397;28;20000;-75
2021/04/05 04:30:33;;;;;;;;;;;2.60;99.90;;;;;;5051966;28;20007;-75
2021/04/05 04:33:01;;;;;;;;;;;2.60;99.90;;;;;;5053662;28;19908;-75
2021/04/05 04:35:27;;;;;;;;;;;2.60;99.90;;;;;;5062572;28;19920;-75
2021/04/05 04:37:53;;;;;;;;;;;2.60;99.90;;;;;;5059554;28;19912;-75
2021/04/05 04:40:25;;;;;;;;;;;2.60;99.90;;;;;;5071096;28;19920;-75
2021/04/05 04:42:51;;;;;;;;;;;2.60;99.90;;;;;;5070481;28;19991;-74
2021/04/05 04:45:17;;;;;;;;;;;2.60;99.90;;;;;;5065853;28;20007;-75
2021/04/05 04:47:43;;;;;;;;;;;2.60;99.90;;;;;;5070146;28;19908;-75
2021/04/05 04:50:09;;;;;;;;;;;2.70;99.90;;;;;;5067963;28;20015;-75
2021/04/05 04:52:34;;;;;;;;;;;2.70;99.90;;;;;;5051655;28;19909;-75
2021/04/05 04:55:00;;;;;;;;;;;2.70;99.90;;;;;;5052814;28;20432;-75
2021/04/05 04:57:25;;;;;;;;;;;2.70;99.90;;;;;;5069262;28;19908;-75
2021/04/05 04:59:51;;;;;;;;;;;2.70;99.90;;;;;;5070711;28;19908;-75
2021/04/05 05:02:16;;;;;;;;;;;2.70;99.90;;;;;;5070158;28;19908;-75
2021/04/05 05:04:42;;;;;;;;;;;2.70;99.90;;;;;;5051446;28;20286;-75
2021/04/05 05:07:08;;;;;;;;;;;2.70;99.90;;;;;;5050469;28;19909;-75
2021/04/05 05:09:35;;;;;;;;;;;2.80;99.90;;;;;;5064171;28;19908;-75
2021/04/05 05:12:00;;;;;;;;;;;2.80;99.90;;;;;;5070146;28;19915;-75
2021/04/05 05:14:26;;;;;;;;;;;2.80;99.90;;;;;;5056155;28;19916;-75
2021/04/05 05:16:53;;;;;;;;;;;2.80;99.90;;;;;;5055585;28;19909;-75
2021/04/05 05:19:19;;;;;;;;;;;2.90;99.90;;;;;;5057889;28;19916;-75
2021/04/05 05:21:52;;;;;;;;;;;2.90;99.90;;;;;;5062426;28;19913;-75
2021/04/05 05:24:22;;;;;;;;;;;2.90;99.90;;;;;;5067428;28;19909;-75
2021/04/05 05:26:49;;;;;;;;;;;3.00;99.90;;;;;;5049789;28;19924;-75
2021/04/05 05:29:17;;;;;;;;;;;3.10;99.90;;;;;;5051301;28;19924;-75
2021/04/05 05:31:43;;;;;;;;;;;3.10;99.90;;;;;;5051439;28;20277;-75
2021/04/05 05:34:16;;;;;;;;;;;3.20;99.90;;;;;;5051438;28;19996;-75
2021/04/05 05:36:42;;;;;;;;;;;3.30;99.90;;;;;;5057825;28;20376;-75
2021/04/05 05:39:08;;;;;;;;;;;3.40;99.90;;;;;;5070028;28;19909;-75
2021/04/05 05:41:39;;;;;;;;;;;3.50;99.90;;;;;;5056177;28;19915;-75
2021/04/05 05:44:10;;;;;;;;;;;3.60;99.90;;;;;;5063941;28;20007;-75
2021/04/05 05:46:41;;;;;;;;;;;3.70;99.90;;;;;;5057128;28;19934;-74
2021/04/05 05:49:23;;;;;;;;;;;3.80;99.40;;;;;;5056783;28;20337;-75
2021/04/05 05:51:55;;;;;;;;;;;3.90;99.40;;;;;;5052447;28;19913;-75
2021/04/05 05:54:39;;;;;;;;;;;4.00;99.00;;;;;;5061291;28;19915;-75
2021/04/05 05:57:19;;;;;;;;;;;4.10;98.90;;;;;;5067656;28;19909;-75
2021/04/05 06:00:03;;;;;;;;;;;4.20;99.10;;;;;;5070007;28;19908;-74
2021/04/05 06:02:35;;;;;;;;;;;4.20;98.70;;;;;;5070233;28;19908;-74
2021/04/05 06:05:09;;;;;;;;;;;4.30;98.80;;;;;;5070054;28;20474;-74
2021/04/05 06:07:54;;;;;;;;;;;4.30;98.60;;;;;;5067716;28;19909;-75
2021/04/05 06:10:31;;;;;;;;;;;4.40;98.60;;;;;;5068079;28;19919;-74
2021/04/05 06:12:57;;;;;;;;;;;4.50;98.20;;;;;;5060213;28;19977;-74
2021/04/05 06:15:24;;;;;;;;;;;4.50;98.20;;;;;;5064903;28;20354;-75
2021/04/05 06:18:10;;;;;;;;;;;4.60;98.30;;;;;;5062639;28;19908;-74
2021/04/05 06:20:37;;;;;;;;;;;4.70;97.60;;;;;;5064136;28;19909;-74
2021/04/05 06:23:11;;;;;;;;;;;4.80;97.40;;;;;;5062520;28;19973;-74
2021/04/05 06:25:49;;;;;;;;;;;4.90;97.40;;;;;;5053868;28;19923;-74
2021/04/05 06:28:34;;;;;;;;;;;5.00;97.30;;;;;;5053407;28;20267;-74
2021/04/05 06:31:02;;;;;;;;;;;5.10;97.20;;;;;;5050361;28;19917;-74
2021/04/05 06:33:32;;;;;;;;;;;5.20;96.90;;;;;;5054064;28;20365;-75
2021/04/05 06:36:06;;;;;;;;;;;5.30;96.70;;;;;;5055094;28;20277;-74
2021/04/05 06:38:34;;;;;;;;;;;5.40;96.60;;;;;;5054819;28;19963;-74
2021/04/05 06:41:06;;;;;;;;;;;5.50;96.00;;;;;;5062446;28;19961;-75
2021/04/05 06:43:50;;;;;;;;;;;5.60;96.30;;;;;;5059451;28;19958;-75
2021/04/05 06:46:38;;;;;;;;;;;5.70;95.90;;;;;;5053728;28;20438;-75
2021/04/05 06:49:10;;;;;;;;;;;5.90;95.80;;;;;;5062089;28;19913;-75
2021/04/05 06:51:54;;;;;;;;;;;5.90;95.40;;;;;;5055147;28;19971;-75
2021/04/05 06:54:38;;;;;;;;;;;6.00;95.20;;;;;;5053818;28;20195;-75
2021/04/05 06:57:14;;;;;;;;;;;6.00;94.80;;;;;;5051670;28;19925;-75
2021/04/05 06:59:45;;;;;;;;;;;6.10;94.80;;;;;;5056931;28;20309;-74
2021/04/05 07:02:31;;;;;;;;;;;6.20;95.00;;;;;;5071518;28;19909;-75
2021/04/05 07:05:06;;;;;;;;;;;6.30;94.10;;;;;;5071823;28;20003;-75
2021/04/05 07:07:42;;;;;;;;;;;6.40;93.90;;;;;;5054094;28;19912;-74
2021/04/05 07:10:10;;;;;;;;;;;6.40;93.90;;;;;;5072699;28;19912;-75
2021/04/05 07:12:42;;;;;;;;;;;6.50;94.00;;;;;;5064370;28;20309;-75
2021/04/05 07:15:10;;;;;;;;;;;6.50;93.60;;;;;;5060364;28;20361;-74
2021/04/05 07:17:38;;;;;;;;;;;6.60;93.20;;;;;;5060835;28;20003;-75
2021/04/05 07:20:17;;;;;;;;;;;6.70;92.80;;;;;;5066588;28;20344;-75
2021/04/05 07:23:01;;;;;;;;;;;6.80;93.20;;;;;;5062148;28;19913;-75
2021/04/05 07:25:36;;;;;;;;;;;6.90;93.30;;;;;;5066070;28;19913;-75
2021/04/05 07:28:20;;;;;;;;;;;7.00;92.90;;;;;;5070049;28;20328;-75
2021/04/05 07:30:49;;;;;;;;;;;7.20;92.90;;;;;;5053049;28;19913;-75
2021/04/05 07:33:38;;;;;;;;;;;7.40;92.60;;;;;;5052904;28;19954;-75
2021/04/05 07:36:03;;;;;;;;;;;7.60;92.60;;;;;;5057739;28;19920;-75
2021/04/05 07:38:50;;;;;;;;;;;8.00;91.90;;;;;;5059520;28;19918;-75
2021/04/05 07:41:21;;;;;;;;;;;8.30;90.90;;;;;;5053108;28;19909;-75
2021/04/05 07:43:58;;;;;;;;;;;8.40;91.00;;;;;;5052598;28;19963;-75
2021/04/05 07:46:34;;;;;;;;;;;8.70;90.70;;;;;;5067748;28;19913;-75
2021/04/05 07:49:11;;;;;;;;;;;9.00;90.60;;;;;;5052724;28;20328;-75
2021/04/05 07:51:45;;;;;;;;;;;9.70;90.30;;;;;;5059116;28;19909;-75
2021/04/05 07:54:12;;;;;;;;;;;10.40;86.80;;;;;;5061239;28;19909;-75
2021/04/05 07:56:46;;;;;;;;;;;10.90;85.30;;;;;;5063411;28;19909;-75
2021/04/05 07:59:41;;;;;;;;;;;11.40;85.00;;;;;;5065572;28;19909;-75
2021/04/05 08:02:25;;;;;;;;;;;11.80;83.10;;;;;;5056749;28;20112;-76
2021/04/05 08:05:09;;;;;;;;;;;12.00;82.60;;;;;;5054015;28;19924;-76
2021/04/05 08:07:52;;;;;;;;;;;12.20;82.50;;;;;;5070593;28;19908;-76
2021/04/05 08:10:22;;;;;;;;;;;12.40;80.10;;;;;;5071600;28;19915;-76
2021/04/05 08:13:04;;;;;;;;;;;12.70;80.60;;;;;;5064880;28;19993;-76
2021/04/05 08:15:35;;;;;;;;;;;13.00;79.80;;;;;;5062846;28;19966;-75
2021/04/05 08:18:01;;;;;;;;;;;13.50;80.00;;;;;;5058333;28;19909;-75
2021/04/05 08:20:29;;;;;;;;;;;13.90;78.20;;;;;;5052184;28;19909;-75
2021/04/05 08:23:10;;;;;;;;;;;14.30;76.70;;;;;;5052038;28;19909;-75
2021/04/05 08:25:57;;;;;;;;;;;14.30;75.40;;;;;;5050219;28;19924;-75
2021/04/05 08:28:34;;;;;;;;;;;14.00;73.70;;;;;;5064193;28;19916;-76
2021/04/05 08:31:18;;;;;;;;;;;13.60;75.00;;;;;;5057494;28;19940;-77
2021/04/05 08:34:02;;;;;;;;;;;13.40;74.70;;;;;;5072401;28;19952;-76
2021/04/05 08:36:32;;;;;;;;;;;13.20;72.90;;;;;;5060578;28;19952;-76
2021/04/05 08:39:13;;;;;;;;;;;12.80;74.20;;;;;;5063946;28;19909;-76
2021/04/05 08:42:02;;;;;;;;;;;12.60;74.00;;;;;;5059973;28;19920;-76
2021/04/05 08:44:46;;;;;;;;;;;12.40;74.40;;;;;;5053172;28;19962;-76
2021/04/05 08:47:14;;;;;;;;;;;12.10;75.00;;;;;;5047848;28;19913;-76
2021/04/05 08:49:41;;;;;;;;;;;11.90;75.70;;;;;;5062003;28;20381;-76
2021/04/05 08:52:09;;;;;;;;;;;11.80;76.70;;;;;;5061320;28;20207;-76
2021/04/05 08:54:37;;;;;;;;;;;11.70;75.60;;;;;;5064379;28;19952;-76
2021/04/05 08:57:05;;;;;;;;;;;11.40;76.00;;;;;;5067856;28;19909;-76
2021/04/05 08:59:33;;;;;;;;;;;11.30;76.10;;;;;;5070404;28;19914;-76
2021/04/05 09:02:05;;;;;;;;;;;11.20;75.20;;;;;;5070222;28;20388;-76
2021/04/05 09:04:31;;;;;;;;;;;11.00;74.70;;;;;;5052479;28;19909;-76
2021/04/05 09:07:04;;;;;;;;;;;10.90;75.20;;;;;;5069202;28;19908;-76
2021/04/05 09:09:32;;;;;;;;;;;10.90;75.80;;;;;;5059115;28;19919;-76
2021/04/05 09:11:58;;;;;;;;;;;10.80;76.30;;;;;;5055282;28;19909;-76
2021/04/05 09:14:24;;;;;;;;;;;10.80;76.20;;;;;;5057717;28;19962;-76
2021/04/05 09:17:04;;;;;;;;;;;10.80;76.40;;;;;;5055164;28;20285;-76
2021/04/05 09:19:41;;;;;;;;;;;10.80;76.20;;;;;;5060951;28;19920;-76
2021/04/05 09:22:22;;;;;;;;;;;10.70;76.80;;;;;;5062228;28;20446;-76
2021/04/05 09:24:53;;;;;;;;;;;10.80;76.80;;;;;;5056760;28;19908;-76
2021/04/05 09:27:33;;;;;;;;;;;10.80;77.00;;;;;;5050716;28;19909;-76
2021/04/05 09:30:01;;;;;;;;;;;10.80;76.90;;;;;;5070425;28;19908;-76
2021/04/05 09:32:48;;;;;;;;;;;10.80;76.90;;;;;;5066507;28;19969;-76
2021/04/05 09:35:32;;;;;;;;;;;10.80;77.20;;;;;;5062445;28;19955;-76
2021/04/05 09:38:09;;;;;;;;;;;10.80;77.20;;;;;;5069919;28;20377;-75
2021/04/05 09:40:50;;;;;;;;;;;10.70;76.70;;;;;;5067539;28;19908;-76
2021/04/05 09:43:24;;;;;;;;;;;10.70;77.10;;;;;;5064230;28;19908;-76
2021/04/05 09:46:08;;;;;;;;;;;10.60;77.00;;;;;;5053118;28;19913;-76
2021/04/05 09:48:43;;;;;;;;;;;10.60;76.90;;;;;;5063841;28;20131;-76
2021/04/05 09:51:32;;;;;;;;;;;10.40;76.30;;;;;;5068835;28;19936;-75
2021/04/05 09:54:02;;;;;;;;;;;10.30;76.70;;;;;;5050560;28;19908;-75
2021/04/05 09:56:32;;;;;;;;;;;10.30;77.90;;;;;;5054460;28;20003;-75
2021/04/05 09:59:08;;;;;;;;;;;10.30;77.40;;;;;;5063626;28;19908;-76
2021/04/05 10:01:35;;;;;;;;;;;10.30;76.40;;;;;;5050754;28;20369;-75
2021/04/05 10:04:02;;;;;;;;;;;10.30;78.10;;;;;;5063793;28;19913;-75
2021/04/05 10:06:31;;;;;;;;;;;10.20;77.80;;;;;;5049788;28;19912;-76
2021/04/05 10:08:58;;;;;;;;;;;10.20;77.40;;;;;;5071810;28;20332;-75
2021/04/05 10:11:26;;;;;;;;;;;10.30;77.20;;;;;;5068429;28;20255;-75
2021/04/05 10:13:56;;;;;;;;;;;10.10;77.50;;;;;;5065605;28;19908;-76
2021/04/05 10:16:22;;;;;;;;;;;10.10;78.30;;;;;;5061038;28;20003;-76
2021/04/05 10:18:56;;;;;;;;;;;10.00;77.90;;;;;;5072402;28;20003;-76
2021/04/05 10:21:23;;;;;;;;;;;10.10;78.00;;;;;;5054392;28;19935;-75
2021/04/05 10:23:49;;;;;;;;;;;10.10;77.90;;;;;;5054131;28;19909;-75
2021/04/05 10:26:15;;;;;;;;;;;10.10;76.80;;;;;;5053306;28;20370;-75
2021/04/05 10:28:42;;;;;;;;;;;10.10;76.30;;;;;;5053023;28;20273;-75
2021/04/05 10:31:09;;;;;;;;;;;10.10;76.80;;;;;;5060935;28;19908;-75
2021/04/05 10:33:36;;;;;;;;;;;10.10;77.40;;;;;;5067226;28;20348;-76
2021/04/05 10:36:09;;;;;;;;;;;10.10;76.70;;;;;;5065873;28;19916;-76
2021/04/05 10:38:36;;;;;;;;;;;10.10;76.40;;;;;;5059284;28;20306;-75
2021/04/05 10:41:04;;;;;;;;;;;10.10;76.90;;;;;;5055189;28;20004;-75
2021/04/05 10:43:37;;;;;;;;;;;10.20;75.80;;;;;;5072284;28;20357;-76
2021/04/05 10:46:06;;;;;;;;;;;10.10;76.50;;;;;;5069159;28;20011;-75
2021/04/05 10:48:47;;;;;;;;;;;10.20;75.50;;;;;;5053518;28;19909;-75
2021/04/05 10:51:23;;;;;;;;;;;10.20;75.10;;;;;;5052633;28;19909;-75
2021/04/05 10:53:52;;;;;;;;;;;10.20;75.70;;;;;;5059640;28;20325;-75
2021/04/05 10:56:18;;;;;;;;;;;10.30;74.60;;;;;;5068972;28;19908;-75
2021/04/05 10:59:00;;;;;;;;;;;10.40;74.40;;;;;;5054619;28;20359;-75
2021/04/05 11:01:27;;;;;;;;;;;10.40;75.00;;;;;;5053523;28;19916;-75
2021/04/05 11:03:53;;;;;;;;;;;10.50;74.20;;;;;;5064970;28;19987;-75
2021/04/05 11:06:20;;;;;;;;;;;10.60;75.00;;;;;;5065299;28;20007;-75
2021/04/05 11:08:48;;;;;;;;;;;10.80;73.60;;;;;;5065814;28;19928;-75
2021/04/05 11:11:16;;;;;;;;;;;10.80;73.60;;;;;;5053367;28;19916;-75
2021/04/05 11:13:43;;;;;;;;;;;10.90;72.50;;;;;;5060169;28;20061;-76
2021/04/05 11:16:13;;;;;;;;;;;11.10;72.90;;;;;;5058527;28;19909;-75
2021/04/05 11:18:55;;;;;;;;;;;11.20;71.30;;;;;;5053036;28;20000;-75
2021/04/05 11:21:31;;;;;;;;;;;11.40;68.00;;;;;;5063569;28;19917;-75
2021/04/05 11:23:57;;;;;;;;;;;11.50;67.50;;;;;;5065368;28;19952;-76
2021/04/05 11:26:25;;;;;;;;;;;11.60;64.80;;;;;;5061113;28;19920;-75
2021/04/05 11:28:52;;;;;;;;;;;11.70;66.60;;;;;;5053079;28;20381;-75
2021/04/05 11:31:19;;;;;;;;;;;11.70;63.60;;;;;;5052904;28;19909;-76
2021/04/05 11:34:04;;;;;;;;;;;11.80;65.10;;;;;;5059539;28;19931;-75
2021/04/05 11:36:36;;;;;;;;;;;11.80;65.70;;;;;;5071291;28;19951;-76
2021/04/05 11:39:05;;;;;;;;;;;11.70;66.40;;;;;;5059714;28;19909;-75
2021/04/05 11:41:31;;;;;;;;;;;11.70;65.70;;;;;;5058926;28;19956;-75
2021/04/05 11:43:59;;;;;;;;;;;11.70;65.80;;;;;;5058755;28;19916;-76
2021/04/05 11:46:28;;;;;;;;;;;11.80;66.70;;;;;;5065215;28;19913;-76
2021/04/05 11:49:02;;;;;;;;;;;11.90;67.20;;;;;;5068844;28;19924;-75
2021/04/05 11:51:30;;;;;;;;;;;12.10;66.10;;;;;;5065106;28;19908;-76
2021/04/05 11:53:58;;;;;;;;;;;12.20;67.00;;;;;;5059408;28;19928;-76
2021/04/05 11:56:24;;;;;;;;;;;12.30;65.50;;;;;;5058007;28;19939;-76
2021/04/05 11:59:09;;;;;;;;;;;12.50;65.80;;;;;;5063613;28;19919;-75
2021/04/05 12:01:45;;;;;;;;;;;12.50;65.30;;;;;;5055197;28;19909;-75
2021/04/05 12:04:18;;;;;;;;;;;12.50;66.40;;;;;;5068245;28;19923;-76
2021/04/05 12:06:47;;;;;;;;;;;12.40;65.70;;;;;;5070637;28;19959;-75
2021/04/05 12:09:22;;;;;;;;;;;12.20;65.60;;;;;;5065195;28;20313;-75
2021/04/05 12:11:52;;;;;;;;;;;12.10;66.40;;;;;;5052404;28;19920;-76
2021/04/05 12:14:23;;;;;;;;;;;12.00;65.90;;;;;;5066544;28;19909;-75
2021/04/05 12:16:49;;;;;;;;;;;11.90;67.00;;;;;;5070242;28;19908;-76
2021/04/05 12:19:45;;;;;;;;;;;11.90;66.60;;;;;;5063198;28;19916;-75
2021/04/05 12:22:11;;;;;;;;;;;11.80;67.50;;;;;;5057826;28;20142;-75
2021/04/05 12:24:39;;;;;;;;;;;11.70;67.70;;;;;;5071291;28;19909;-75
2021/04/05 12:27:07;;;;;;;;;;;11.70;69.20;;;;;;5063989;28;19908;-75
2021/04/05 12:29:34;;;;;;;;;;;11.60;67.80;;;;;;5057979;28;19912;-76
2021/04/05 12:32:01;;;;;;;;;;;11.50;68.10;;;;;;5065404;28;19909;-76
2021/04/05 12:34:28;;;;;;;;;;;11.50;70.40;;;;;;5070028;28;19955;-76
2021/04/05 12:36:54;;;;;;;;;;;11.50;70.00;;;;;;5063817;28;19916;-76
2021/04/05 12:39:20;;;;;;;;;;;11.40;70.20;;;;;;5059439;28;19920;-76
2021/04/05 12:41:46;;;;;;;;;;;11.40;70.60;;;;;;5056341;28;19954;-76
2021/04/05 12:44:17;;;;;;;;;;;11.30;71.80;;;;;;5064310;28;19909;-75
2021/04/05 12:46:48;;;;;;;;;;;11.20;71.20;;;;;;5058435;28;19956;-75
2021/04/05 12:49:18;;;;;;;;;;;11.10;71.30;;;;;;5057564;28;19909;-75
2021/04/05 12:51:43;;;;;;;;;;;11.10;71.70;;;;;;5064508;28;19909;-75
2021/04/05 12:54:10;;;;;;;;;;;11.00;72.70;;;;;;5064003;28;19982;-76
2021/04/05 12:56:36;;;;;;;;;;;11.00;73.80;;;;;;5069840;28;19920;-76
2021/04/05 12:59:01;;;;;;;;;;;11.00;73.10;;;;;;5050377;28;19921;-75
2021/04/05 13:01:32;;;;;;;;;;;11.00;73.70;;;;;;5062045;28;20294;-75
2021/04/05 13:03:59;;;;;;;;;;;10.90;73.30;;;;;;5059126;28;19915;-75
2021/04/05 13:06:26;;;;;;;;;;;10.70;73.90;;;;;;5061921;28;20011;-75
2021/04/05 13:08:51;;;;;;;;;;;10.60;74.60;;;;;;5070242;28;19916;-75
2021/04/05 13:11:23;;;;;;;;;;;10.60;74.90;;;;;;5066802;28;19909;-75
2021/04/05 13:13:50;;;;;;;;;;;10.50;74.70;;;;;;5078121;28;19908;-75
2021/04/05 13:16:19;;;;;;;;;;;10.40;76.20;;;;;;5063232;28;19909;-75
2021/04/05 13:18:49;;;;;;;;;;;10.30;76.40;;;;;;5057589;28;19915;-75
2021/04/05 13:21:16;;;;;;;;;;;10.30;76.80;;;;;;5053858;28;19913;-75
2021/04/05 13:23:53;;;;;;;;;;;10.20;78.00;;;;;;5065967;28;20277;-75
2021/04/05 13:26:29;;;;;;;;;;;10.10;78.10;;;;;;5060182;28;20373;-75
2021/04/05 13:28:55;;;;;;;;;;;10.00;78.40;;;;;;5059474;28;19908;-75
2021/04/05 13:31:21;;;;;;;;;;;10.00;79.10;;;;;;5050975;28;20145;-75
2021/04/05 13:33:47;;;;;;;;;;;10.00;78.50;;;;;;5051280;28;20423;-75
2021/04/05 13:36:16;;;;;;;;;;;9.90;79.70;;;;;;5049264;28;19917;-75
2021/04/05 13:38:42;;;;;;;;;;;9.90;81.00;;;;;;5056346;28;19913;-75
2021/04/05 13:41:08;;;;;;;;;;;9.90;80.50;;;;;;5051451;28;19909;-75
2021/04/05 13:43:36;;;;;;;;;;;9.90;80.70;;;;;;5064461;28;20004;-75
2021/04/05 13:46:06;;;;;;;;;;;9.90;81.70;;;;;;5054503;28;20377;-75
2021/04/05 13:48:32;;;;;;;;;;;10.00;79.40;;;;;;5052943;28;19925;-75
2021/04/05 13:50:58;;;;;;;;;;;9.90;80.70;;;;;;5054126;28;20003;-75
2021/04/05 13:53:28;;;;;;;;;;;10.00;79.60;;;;;;5059060;28;19970;-75
2021/04/05 13:55:55;;;;;;;;;;;10.00;80.30;;;;;;5053190;28;19908;-75
2021/04/05 13:58:25;;;;;;;;;;;9.90;81.40;;;;;;5055008;28;19955;-75
2021/04/05 14:00:50;;;;;;;;;;;9.90;81.10;;;;;;5070238;28;19975;-75
2021/04/05 14:03:19;;;;;;;;;;;9.90;80.10;;;;;;5073651;28;19908;-75
2021/04/05 14:05:46;;;;;;;;;;;9.80;80.00;;;;;;5072460;28;19912;-75
2021/04/05 14:08:15;;;;;;;;;;;9.70;80.30;;;;;;5064198;28;19931;-75
2021/04/05 14:10:41;;;;;;;;;;;9.70;81.00;;;;;;5057920;28;20007;-75
2021/04/05 14:13:09;;;;;;;;;;;9.70;81.00;;;;;;5067055;28;19995;-75
2021/04/05 14:15:36;;;;;;;;;;;9.70;82.00;;;;;;5071928;28;20002;-75
2021/04/05 14:18:18;;;;;;;;;;;9.70;81.90;;;;;;5070302;28;20301;-75
2021/04/05 14:20:44;;;;;;;;;;;9.70;82.30;;;;;;5053085;28;19908;-75
2021/04/05 14:23:21;;;;;;;;;;;9.80;83.30;;;;;;5054386;28;19915;-75
2021/04/05 14:25:49;;;;;;;;;;;9.80;82.30;;;;;;5052854;28;20285;-75
2021/04/05 14:28:18;;;;;;;;;;;9.80;81.80;;;;;;5053951;28;20366;-75
2021/04/05 14:30:46;;;;;;;;;;;9.70;82.40;;;;;;5070074;28;20415;-75
2021/04/05 14:33:20;;;;;;;;;;;9.60;82.50;;;;;;5069493;28;19908;-75
2021/04/05 14:35:46;;;;;;;;;;;9.60;82.80;;;;;;5067324;28;20449;-75
2021/04/05 14:38:21;;;;;;;;;;;9.60;83.30;;;;;;5059997;28;19909;-75
2021/04/05 14:40:48;;;;;;;;;;;9.60;82.90;;;;;;5058914;28;19924;-75
2021/04/05 14:43:18;;;;;;;;;;;9.50;82.70;;;;;;5052792;28;19997;-75
2021/04/05 14:45:48;;;;;;;;;;;9.40;83.30;;;;;;5051683;28;19919;-75